sensor_id;sensor_type;location;lat;lon;timestamp;pressure;altitude;pressure_sealevel;temperature;humidity
23574;BME280;11965;53.640;10.050;2022-10-22T00:01:48;100759.75;;;14.02;100.00
23574;BME280;11965;53.640;10.050;2022-10-22T00:04:13;100763.69;;;13.95;100.00
23574;BME280;11965;53.640;10.050;2022-10-22T00:06:39;100754.03;;;13.97;100.00
23574;BME280;11965;53.640;10.050;2022-10-22T00:09:07;100770.06;;;14.08;100.00
23574;BME280;11965;53.640;10.050;2022-10-22T00:11:32;100761.50;;;14.03;100.00
23574;BME280;11965;53.640;10.050;2022-10-22T00:13:58;100758.72;;;14.03;100.00
23574;BME280;11965;53.640;10.050;2022-10-22T00:16:24;100773.25;;;14.12;100.00
23574;BME280;11965;53.640;10.050;2022-10-22T00:18:49;100771.56;;;14.11;100.00
23574;BME280;11965;53.640;10.050;2022-10-22T00:21:15;100753.59;;;14.00;100.00
23574;BME280;11965;53.640;10.050;2022-10-22T00:23:41;100773.28;;;14.05;100.00
23574;BME280;11965;53.640;10.050;2022-10-22T00:26:08;100776.06;;;14.05;100.00
23574;BME280;11965;53.640;10.050;2022-10-22T00:28:34;100780.19;;;13.89;100.00
23574;BME280;11965;53.640;10.050;2022-10-22T00:31:00;100764.53;;;13.88;100.00
23574;BME280;11965;53.640;10.050;2022-10-22T00:33:27;100784.00;;;14.08;100.00
23574;BME280;11965;53.640;10.050;2022-10-22T00:35:53;100764.72;;;13.93;100.00
23574;BME280;11965;53.640;10.050;2022-10-22T00:38:19;100789.97;;;14.12;100.00
23574;BME280;11965;53.640;10.050;2022-10-22T00:40:44;100793.59;;;14.12;100.00
23574;BME280;11965;53.640;10.050;2022-10-22T00:43:12;100787.44;;;14.10;100.00
23574;BME280;11965;53.640;10.050;2022-10-22T00:45:38;100794.91;;;14.10;100.00
23574;BME280;11965;53.640;10.050;2022-10-22T00:48:09;100791.06;;;14.04;100.00
23574;BME280;11965;53.640;10.050;2022-10-22T00:50:42;100793.00;;;14.04;100.00
23574;BME280;11965;53.640;10.050;2022-10-22T00:53:15;100782.50;;;14.06;100.00
23574;BME280;11965;53.640;10.050;2022-10-22T00:55:46;100794.91;;;14.10;100.00
23574;BME280;11965;53.640;10.050;2022-10-22T00:58:14;100798.16;;;14.00;100.00
23574;BME280;11965;53.640;10.050;2022-10-22T01:00:40;100801.38;;;14.04;100.00
23574;BME280;11965;53.640;10.050;2022-10-22T01:03:07;100786.78;;;14.02;100.00
23574;BME280;11965;53.640;10.050;2022-10-22T01:05:42;100791.72;;;14.06;100.00
23574;BME280;11965;53.640;10.050;2022-10-22T01:08:17;100785.03;;;14.07;100.00
23574;BME280;11965;53.640;10.050;2022-10-22T01:16:29;100792.34;;;14.08;100.00
23574;BME280;11965;53.640;10.050;2022-10-22T01:19:21;100796.00;;;14.09;100.00
23574;BME280;11965;53.640;10.050;2022-10-22T01:21:58;100799.41;;;14.11;100.00
23574;BME280;11965;53.640;10.050;2022-10-22T01:24:27;100790.84;;;14.06;100.00
23574;BME280;11965;53.640;10.050;2022-10-22T01:27:12;100787.00;;;14.07;100.00
23574;BME280;11965;53.640;10.050;2022-10-22T01:29:47;100803.06;;;14.11;100.00
23574;BME280;11965;53.640;10.050;2022-10-22T01:32:21;100800.28;;;14.11;100.00
23574;BME280;11965;53.640;10.050;2022-10-22T01:35:00;100776.31;;;13.97;100.00
23574;BME280;11965;53.640;10.050;2022-10-22T01:37:30;100809.72;;;14.04;100.00
23574;BME280;11965;53.640;10.050;2022-10-22T01:40:00;100788.78;;;13.81;100.00
23574;BME280;11965;53.640;10.050;2022-10-22T01:42:26;100803.56;;;13.82;100.00
23574;BME280;11965;53.640;10.050;2022-10-22T01:44:52;100805.28;;;13.76;100.00
23574;BME280;11965;53.640;10.050;2022-10-22T01:47:20;100805.53;;;13.68;100.00
23574;BME280;11965;53.640;10.050;2022-10-22T01:53:13;100790.97;;;13.26;100.00
23574;BME280;11965;53.640;10.050;2022-10-22T01:58:41;100789.00;;;12.93;100.00
23574;BME280;11965;53.640;10.050;2022-10-22T02:01:13;100813.63;;;13.03;100.00
23574;BME280;11965;53.640;10.050;2022-10-22T02:03:50;100798.38;;;12.86;100.00
23574;BME280;11965;53.640;10.050;2022-10-22T02:06:22;100795.59;;;12.79;100.00
23574;BME280;11965;53.640;10.050;2022-10-22T02:08:52;100791.28;;;12.63;100.00
23574;BME280;11965;53.640;10.050;2022-10-22T02:11:19;100788.69;;;12.55;100.00
23574;BME280;11965;53.640;10.050;2022-10-22T02:13:48;100809.25;;;12.60;100.00
23574;BME280;11965;53.640;10.050;2022-10-22T02:16:23;100808.97;;;12.49;100.00
23574;BME280;11965;53.640;10.050;2022-10-22T02:18:53;100786.25;;;12.32;100.00
23574;BME280;11965;53.640;10.050;2022-10-22T02:21:21;100759.91;;;12.14;100.00
23574;BME280;11965;53.640;10.050;2022-10-22T02:23:48;100792.00;;;12.30;100.00
23574;BME280;11965;53.640;10.050;2022-10-22T02:28:54;100792.88;;;12.31;100.00
23574;BME280;11965;53.640;10.050;2022-10-22T02:31:30;100776.34;;;12.16;100.00
23574;BME280;11965;53.640;10.050;2022-10-22T02:34:03;100784.69;;;12.16;100.00
23574;BME280;11965;53.640;10.050;2022-10-22T02:36:33;100786.19;;;12.12;100.00
23574;BME280;11965;53.640;10.050;2022-10-22T02:39:00;100756.00;;;12.02;100.00
23574;BME280;11965;53.640;10.050;2022-10-22T02:41:26;100788.06;;;12.11;100.00
23574;BME280;11965;53.640;10.050;2022-10-22T02:43:54;100787.41;;;12.03;100.00
23574;BME280;11965;53.640;10.050;2022-10-22T02:46:20;100788.06;;;12.05;100.00
23574;BME280;11965;53.640;10.050;2022-10-22T02:48:46;100781.41;;;11.99;100.00
23574;BME280;11965;53.640;10.050;2022-10-22T02:51:12;100789.53;;;12.01;100.00
23574;BME280;11965;53.640;10.050;2022-10-22T02:53:37;100778.81;;;11.91;100.00
23574;BME280;11965;53.640;10.050;2022-10-22T02:56:03;100767.22;;;11.87;100.00
23574;BME280;11965;53.640;10.050;2022-10-22T02:58:29;100792.72;;;11.98;100.00
23574;BME280;11965;53.640;10.050;2022-10-22T03:00:55;100789.50;;;11.94;100.00
23574;BME280;11965;53.640;10.050;2022-10-22T03:03:20;100778.94;;;11.83;100.00
23574;BME280;11965;53.640;10.050;2022-10-22T03:05:46;100776.97;;;11.77;100.00
23574;BME280;11965;53.640;10.050;2022-10-22T03:08:11;100806.56;;;11.91;100.00
23574;BME280;11965;53.640;10.050;2022-10-22T03:10:37;100768.84;;;11.75;100.00
23574;BME280;11965;53.640;10.050;2022-10-22T03:13:03;100788.72;;;11.79;100.00
23574;BME280;11965;53.640;10.050;2022-10-22T03:15:28;100787.03;;;11.78;100.00
23574;BME280;11965;53.640;10.050;2022-10-22T03:17:54;100792.13;;;11.74;100.00
23574;BME280;11965;53.640;10.050;2022-10-22T03:20:19;100792.13;;;11.74;100.00
23574;BME280;11965;53.640;10.050;2022-10-22T03:22:46;100795.03;;;11.66;100.00
23574;BME280;11965;53.640;10.050;2022-10-22T03:25:19;100794.81;;;11.61;100.00
23574;BME280;11965;53.640;10.050;2022-10-22T03:27:48;100776.81;;;11.50;100.00
23574;BME280;11965;53.640;10.050;2022-10-22T03:30:15;100798.63;;;11.60;100.00
23574;BME280;11965;53.640;10.050;2022-10-22T03:32:40;100812.78;;;11.65;100.00
23574;BME280;11965;53.640;10.050;2022-10-22T03:35:06;100804.19;;;11.60;100.00
23574;BME280;11965;53.640;10.050;2022-10-22T03:37:33;100819.81;;;11.61;100.00
23574;BME280;11965;53.640;10.050;2022-10-22T03:40:02;100821.50;;;11.62;100.00
23574;BME280;11965;53.640;10.050;2022-10-22T03:42:28;100828.31;;;11.59;100.00
23574;BME280;11965;53.640;10.050;2022-10-22T03:44:54;100798.28;;;11.41;100.00
23574;BME280;11965;53.640;10.050;2022-10-22T03:47:20;100843.47;;;11.57;100.00
23574;BME280;11965;53.640;10.050;2022-10-22T03:49:50;100818.06;;;11.32;100.00
23574;BME280;11965;53.640;10.050;2022-10-22T03:52:16;100834.34;;;11.41;100.00
23574;BME280;11965;53.640;10.050;2022-10-22T03:54:42;100838.63;;;11.37;100.00
23574;BME280;11965;53.640;10.050;2022-10-22T03:57:08;100846.47;;;11.34;100.00
23574;BME280;11965;53.640;10.050;2022-10-22T03:59:40;100829.94;;;11.25;100.00
23574;BME280;11965;53.640;10.050;2022-10-22T04:02:06;100831.22;;;11.23;100.00
23574;BME280;11965;53.640;10.050;2022-10-22T04:04:32;100852.00;;;11.34;100.00
23574;BME280;11965;53.640;10.050;2022-10-22T04:06:58;100857.38;;;11.35;100.00
23574;BME280;11965;53.640;10.050;2022-10-22T04:09:24;100817.25;;;11.10;100.00
23574;BME280;11965;53.640;10.050;2022-10-22T04:11:49;100862.66;;;11.30;100.00
23574;BME280;11965;53.640;10.050;2022-10-22T04:14:15;100857.06;;;11.23;100.00
23574;BME280;11965;53.640;10.050;2022-10-22T04:16:41;100848.22;;;11.13;100.00
23574;BME280;11965;53.640;10.050;2022-10-22T04:19:07;100877.88;;;11.13;100.00
23574;BME280;11965;53.640;10.050;2022-10-22T04:21:34;100872.59;;;11.18;100.00
23574;BME280;11965;53.640;10.050;2022-10-22T04:23:59;100878.31;;;11.16;100.00
23574;BME280;11965;53.640;10.050;2022-10-22T04:26:25;100830.72;;;10.91;100.00
23574;BME280;11965;53.640;10.050;2022-10-22T04:28:52;100879.56;;;11.14;100.00
23574;BME280;11965;53.640;10.050;2022-10-22T04:31:20;100876.78;;;11.14;100.00
23574;BME280;11965;53.640;10.050;2022-10-22T04:33:51;100857.47;;;10.99;100.00
23574;BME280;11965;53.640;10.050;2022-10-22T04:36:17;100869.28;;;11.08;100.00
23574;BME280;11965;53.640;10.050;2022-10-22T04:38:45;100867.75;;;11.05;100.00
23574;BME280;11965;53.640;10.050;2022-10-22T04:41:14;100869.28;;;11.08;100.00
23574;BME280;11965;53.640;10.050;2022-10-22T04:43:41;100865.66;;;11.07;100.00
23574;BME280;11965;53.640;10.050;2022-10-22T04:46:10;100844.19;;;10.94;100.00
23574;BME280;11965;53.640;10.050;2022-10-22T04:48:38;100866.69;;;11.06;100.00
23574;BME280;11965;53.640;10.050;2022-10-22T04:51:06;100835.59;;;10.89;100.00
23574;BME280;11965;53.640;10.050;2022-10-22T04:53:34;100867.75;;;11.05;100.00
23574;BME280;11965;53.640;10.050;2022-10-22T04:56:20;100865.88;;;11.12;100.00
23574;BME280;11965;53.640;10.050;2022-10-22T04:58:54;100868.47;;;11.14;100.00
23574;BME280;11965;53.640;10.050;2022-10-22T05:01:32;100862.06;;;11.13;100.00
23574;BME280;11965;53.640;10.050;2022-10-22T05:04:00;100858.91;;;11.16;100.00
23574;BME280;11965;53.640;10.050;2022-10-22T05:06:28;100860.59;;;11.17;100.00
23574;BME280;11965;53.640;10.050;2022-10-22T05:09:02;100853.53;;;11.15;100.00
23574;BME280;11965;53.640;10.050;2022-10-22T05:11:32;100829.72;;;10.99;100.00
23574;BME280;11965;53.640;10.050;2022-10-22T05:14:00;100854.59;;;11.14;100.00
23574;BME280;11965;53.640;10.050;2022-10-22T05:16:27;100860.41;;;11.19;100.00
23574;BME280;11965;53.640;10.050;2022-10-22T05:18:53;100863.38;;;11.17;100.00
23574;BME280;11965;53.640;10.050;2022-10-22T05:21:20;100835.84;;;10.94;100.00
23574;BME280;11965;53.640;10.050;2022-10-22T05:23:48;100846.47;;;10.91;100.00
23574;BME280;11965;53.640;10.050;2022-10-22T05:26:16;100859.75;;;10.95;100.00
23574;BME280;11965;53.640;10.050;2022-10-22T05:28:42;100862.13;;;10.98;100.00
23574;BME280;11965;53.640;10.050;2022-10-22T05:31:10;100869.94;;;11.10;100.00
23574;BME280;11965;53.640;10.050;2022-10-22T05:33:36;100865.03;;;11.12;100.00
23574;BME280;11965;53.640;10.050;2022-10-22T05:36:04;100869.69;;;11.04;100.00
23574;BME280;11965;53.640;10.050;2022-10-22T05:38:31;100876.75;;;11.07;100.00
23574;BME280;11965;53.640;10.050;2022-10-22T05:41:05;100859.16;;;11.00;100.00
23574;BME280;11965;53.640;10.050;2022-10-22T05:43:32;100875.53;;;10.95;100.00
23574;BME280;11965;53.640;10.050;2022-10-22T05:46:07;100881.63;;;11.05;100.00
23574;BME280;11965;53.640;10.050;2022-10-22T05:48:33;100860.69;;;11.02;100.00
23574;BME280;11965;53.640;10.050;2022-10-22T05:51:10;100874.47;;;11.17;100.00
23574;BME280;11965;53.640;10.050;2022-10-22T05:53:39;100878.38;;;11.23;100.00
23574;BME280;11965;53.640;10.050;2022-10-22T05:56:15;100871.53;;;11.19;100.00
23574;BME280;11965;53.640;10.050;2022-10-22T05:58:43;100867.69;;;11.20;100.00
23574;BME280;11965;53.640;10.050;2022-10-22T06:01:14;100896.41;;;11.34;100.00
23574;BME280;11965;53.640;10.050;2022-10-22T06:03:40;100894.13;;;11.37;100.00
23574;BME280;11965;53.640;10.050;2022-10-22T06:06:30;100892.63;;;11.41;100.00
23574;BME280;11965;53.640;10.050;2022-10-22T06:09:02;100875.88;;;11.28;100.00
23574;BME280;11965;53.640;10.050;2022-10-22T06:11:29;100903.34;;;11.44;100.00
23574;BME280;11965;53.640;10.050;2022-10-22T06:13:55;100903.75;;;11.41;100.00
23574;BME280;11965;53.640;10.050;2022-10-22T06:16:20;100886.44;;;11.39;100.00
23574;BME280;11965;53.640;10.050;2022-10-22T06:18:46;100886.63;;;11.38;100.00
23574;BME280;11965;53.640;10.050;2022-10-22T06:21:13;100902.09;;;11.47;100.00
23574;BME280;11965;53.640;10.050;2022-10-22T06:23:41;100892.63;;;11.41;100.00
23574;BME280;11965;53.640;10.050;2022-10-22T06:26:08;100903.28;;;11.59;100.00
23574;BME280;11965;53.640;10.050;2022-10-22T06:28:35;100891.91;;;11.54;100.00
23574;BME280;11965;53.640;10.050;2022-10-22T06:31:01;100913.16;;;11.68;100.00
23574;BME280;11965;53.640;10.050;2022-10-22T06:33:30;100910.38;;;11.68;100.00
23574;BME280;11965;53.640;10.050;2022-10-22T06:36:03;100899.91;;;11.64;100.00
23574;BME280;11965;53.640;10.050;2022-10-22T06:38:29;100920.72;;;11.75;100.00
23574;BME280;11965;53.640;10.050;2022-10-22T06:40:55;100908.50;;;11.69;100.00
23574;BME280;11965;53.640;10.050;2022-10-22T06:43:20;100919.06;;;11.80;100.00
23574;BME280;11965;53.640;10.050;2022-10-22T06:45:46;100884.38;;;11.69;100.00
23574;BME280;11965;53.640;10.050;2022-10-22T06:48:11;100882.19;;;11.65;100.00
23574;BME280;11965;53.640;10.050;2022-10-22T06:50:37;100897.69;;;11.81;100.00
23574;BME280;11965;53.640;10.050;2022-10-22T06:53:03;100901.59;;;11.86;100.00
23574;BME280;11965;53.640;10.050;2022-10-22T06:55:28;100929.47;;;12.00;100.00
23574;BME280;11965;53.640;10.050;2022-10-22T06:57:54;100934.03;;;12.07;100.00
23574;BME280;11965;53.640;10.050;2022-10-22T07:00:20;100912.16;;;11.98;100.00
23574;BME280;11965;53.640;10.050;2022-10-22T07:02:50;100909.19;;;11.99;100.00
23574;BME280;11965;53.640;10.050;2022-10-22T07:05:18;100951.00;;;12.19;100.00
23574;BME280;11965;53.640;10.050;2022-10-22T07:07:43;100948.03;;;12.21;100.00
23574;BME280;11965;53.640;10.050;2022-10-22T07:10:09;100960.06;;;12.28;100.00
23574;BME280;11965;53.640;10.050;2022-10-22T07:12:34;100935.16;;;12.20;100.00
23574;BME280;11965;53.640;10.050;2022-10-22T07:15:00;100945.28;;;12.27;100.00
23574;BME280;11965;53.640;10.050;2022-10-22T07:17:25;100938.19;;;12.25;100.00
23574;BME280;11965;53.640;10.050;2022-10-22T07:19:51;100952.56;;;12.28;100.00
23574;BME280;11965;53.640;10.050;2022-10-22T07:22:17;100951.50;;;12.29;100.00
23574;BME280;11965;53.640;10.050;2022-10-22T07:24:42;100938.16;;;12.18;100.00
23574;BME280;11965;53.640;10.050;2022-10-22T07:27:08;100968.06;;;12.44;100.00
23574;BME280;11965;53.640;10.050;2022-10-22T07:29:33;100946.25;;;12.13;100.00
23574;BME280;11965;53.640;10.050;2022-10-22T07:31:59;100949.97;;;12.27;100.00
23574;BME280;11965;53.640;10.050;2022-10-22T07:34:25;100958.31;;;12.27;100.00
23574;BME280;11965;53.640;10.050;2022-10-22T07:36:50;100959.81;;;12.29;100.00
23574;BME280;11965;53.640;10.050;2022-10-22T07:39:16;100956.03;;;12.37;100.00
23574;BME280;11965;53.640;10.050;2022-10-22T07:41:41;100950.22;;;12.32;100.00
23574;BME280;11965;53.640;10.050;2022-10-22T07:44:07;100962.78;;;12.56;100.00
23574;BME280;11965;53.640;10.050;2022-10-22T07:46:32;100981.81;;;12.59;100.00
23574;BME280;11965;53.640;10.050;2022-10-22T07:48:59;100975.00;;;12.62;100.00
23574;BME280;11965;53.640;10.050;2022-10-22T07:51:25;100962.97;;;12.54;100.00
23574;BME280;11965;53.640;10.050;2022-10-22T07:53:51;100960.25;;;12.68;100.00
23574;BME280;11965;53.640;10.050;2022-10-22T07:56:16;100992.03;;;12.87;100.00
23574;BME280;11965;53.640;10.050;2022-10-22T07:58:42;100986.63;;;12.78;100.00
23574;BME280;11965;53.640;10.050;2022-10-22T08:01:08;100998.47;;;12.87;100.00
23574;BME280;11965;53.640;10.050;2022-10-22T08:03:33;100964.56;;;12.70;100.00
23574;BME280;11965;53.640;10.050;2022-10-22T08:06:00;100999.81;;;12.98;100.00
23574;BME280;11965;53.640;10.050;2022-10-22T08:08:25;100995.34;;;13.03;100.00
23574;BME280;11965;53.640;10.050;2022-10-22T08:10:52;100970.22;;;12.90;100.00
23574;BME280;11965;53.640;10.050;2022-10-22T08:13:18;100980.38;;;13.11;100.00
23574;BME280;11965;53.640;10.050;2022-10-22T08:15:44;100999.22;;;13.16;100.00
23574;BME280;11965;53.640;10.050;2022-10-22T08:18:11;101007.38;;;13.24;100.00
23574;BME280;11965;53.640;10.050;2022-10-22T08:20:37;101007.13;;;13.12;100.00
23574;BME280;11965;53.640;10.050;2022-10-22T08:23:03;100996.84;;;13.13;100.00
23574;BME280;11965;53.640;10.050;2022-10-22T08:25:29;100975.38;;;12.93;100.00
23574;BME280;11965;53.640;10.050;2022-10-22T08:27:54;101019.53;;;13.03;100.00
23574;BME280;11965;53.640;10.050;2022-10-22T08:30:20;101021.00;;;13.05;100.00
23574;BME280;11965;53.640;10.050;2022-10-22T08:32:45;101006.88;;;13.00;100.00
23574;BME280;11965;53.640;10.050;2022-10-22T08:35:11;101018.28;;;13.12;100.00
23574;BME280;11965;53.640;10.050;2022-10-22T08:37:37;101029.34;;;13.05;100.00
23574;BME280;11965;53.640;10.050;2022-10-22T08:40:04;101019.00;;;12.86;100.00
23574;BME280;11965;53.640;10.050;2022-10-22T08:43:10;101025.22;;;12.95;100.00
23574;BME280;11965;53.640;10.050;2022-10-22T08:48:49;101016.34;;;13.13;100.00
23574;BME280;11965;53.640;10.050;2022-10-22T08:51:21;101044.94;;;13.35;100.00
23574;BME280;11965;53.640;10.050;2022-10-22T08:56:30;101025.69;;;13.33;100.00
23574;BME280;11965;53.640;10.050;2022-10-22T08:59:13;101039.88;;;13.58;100.00
23574;BME280;11965;53.640;10.050;2022-10-22T09:01:46;101036.47;;;13.63;100.00
23574;BME280;11965;53.640;10.050;2022-10-22T09:04:31;101048.94;;;13.74;100.00
23574;BME280;11965;53.640;10.050;2022-10-22T09:07:00;101037.78;;;13.74;100.00
23574;BME280;11965;53.640;10.050;2022-10-22T09:09:32;101052.56;;;13.81;100.00
23574;BME280;11965;53.640;10.050;2022-10-22T09:12:03;101057.97;;;13.89;100.00
23574;BME280;11965;53.640;10.050;2022-10-22T09:14:29;101045.50;;;13.91;100.00
23574;BME280;11965;53.640;10.050;2022-10-22T09:17:01;101054.31;;;14.02;100.00
23574;BME280;11965;53.640;10.050;2022-10-22T09:19:40;101051.56;;;14.08;100.00
23574;BME280;11965;53.640;10.050;2022-10-22T09:24:54;101044.69;;;14.18;100.00
23574;BME280;11965;53.640;10.050;2022-10-22T09:27:27;101042.56;;;14.33;100.00
23574;BME280;11965;53.640;10.050;2022-10-22T09:29:53;101012.50;;;14.42;100.00
23574;BME280;11965;53.640;10.050;2022-10-22T09:32:19;101025.59;;;14.61;100.00
23574;BME280;11965;53.640;10.050;2022-10-22T09:34:49;101040.19;;;14.63;100.00
23574;BME280;11965;53.640;10.050;2022-10-22T09:37:18;101029.25;;;14.68;100.00
23574;BME280;11965;53.640;10.050;2022-10-22T09:39:47;101027.06;;;14.77;100.00
23574;BME280;11965;53.640;10.050;2022-10-22T09:42:17;101018.25;;;14.80;100.00
23574;BME280;11965;53.640;10.050;2022-10-22T09:44:44;101027.50;;;14.80;100.00
23574;BME280;11965;53.640;10.050;2022-10-22T09:47:46;101025.78;;;14.79;100.00
23574;BME280;11965;53.640;10.050;2022-10-22T09:50:46;101044.47;;;14.86;100.00
23574;BME280;11965;53.640;10.050;2022-10-22T09:53:21;101041.00;;;14.90;100.00
23574;BME280;11965;53.640;10.050;2022-10-22T09:55:53;101036.25;;;14.91;100.00
23574;BME280;11965;53.640;10.050;2022-10-22T09:58:19;101053.41;;;15.01;100.00
23574;BME280;11965;53.640;10.050;2022-10-22T10:00:50;101046.34;;;15.05;100.00
23574;BME280;11965;53.640;10.050;2022-10-22T10:03:19;101033.22;;;15.06;100.00
23574;BME280;11965;53.640;10.050;2022-10-22T10:05:48;101047.97;;;15.26;100.00
23574;BME280;11965;53.640;10.050;2022-10-22T10:08:16;101038.97;;;15.24;100.00
23574;BME280;11965;53.640;10.050;2022-10-22T10:11:05;101050.09;;;15.31;100.00
23574;BME280;11965;53.640;10.050;2022-10-22T10:22:09;101048.22;;;15.18;100.00
23574;BME280;11965;53.640;10.050;2022-10-22T10:27:38;101049.28;;;15.17;100.00
23574;BME280;11965;53.640;10.050;2022-10-22T10:36:16;101044.06;;;15.34;100.00
23574;BME280;11965;53.640;10.050;2022-10-22T10:38:49;101042.75;;;15.43;100.00
23574;BME280;11965;53.640;10.050;2022-10-22T10:49:43;101021.66;;;15.47;100.00
23574;BME280;11965;53.640;10.050;2022-10-22T10:52:30;101043.47;;;15.63;100.00
23574;BME280;11965;53.640;10.050;2022-10-22T10:55:18;101052.09;;;15.62;100.00
23574;BME280;11965;53.640;10.050;2022-10-22T10:58:09;101041.81;;;15.56;100.00
23574;BME280;11965;53.640;10.050;2022-10-22T11:00:52;101046.53;;;15.55;100.00
23574;BME280;11965;53.640;10.050;2022-10-22T11:06:24;101044.34;;;15.71;100.00
23574;BME280;11965;53.640;10.050;2022-10-22T11:09:04;101032.09;;;15.72;100.00
23574;BME280;11965;53.640;10.050;2022-10-22T11:11:51;101039.41;;;15.73;100.00
23574;BME280;11965;53.640;10.050;2022-10-22T11:14:32;101038.31;;;15.74;100.00
23574;BME280;11965;53.640;10.050;2022-10-22T11:17:11;101043.00;;;15.80;100.00
23574;BME280;11965;53.640;10.050;2022-10-22T11:19:49;101037.75;;;15.90;100.00
23574;BME280;11965;53.640;10.050;2022-10-22T11:22:43;101004.09;;;15.78;100.00
23574;BME280;11965;53.640;10.050;2022-10-22T11:30:17;101044.22;;;16.47;100.00
23574;BME280;11965;53.640;10.050;2022-10-22T11:32:57;101032.47;;;16.57;100.00
23574;BME280;11965;53.640;10.050;2022-10-22T11:35:29;101041.13;;;16.81;100.00
23574;BME280;11965;53.640;10.050;2022-10-22T11:37:57;101044.72;;;16.88;100.00
23574;BME280;11965;53.640;10.050;2022-10-22T11:40:35;101034.34;;;16.45;100.00
23574;BME280;11965;53.640;10.050;2022-10-22T11:43:08;101034.34;;;16.45;100.00
23574;BME280;11965;53.640;10.050;2022-10-22T11:45:40;101041.72;;;16.39;100.00
23574;BME280;11965;53.640;10.050;2022-10-22T11:55:45;101049.81;;;16.47;100.00
23574;BME280;11965;53.640;10.050;2022-10-22T12:00:54;101050.19;;;16.51;100.00
23574;BME280;11965;53.640;10.050;2022-10-22T12:06:24;101042.78;;;16.38;100.00
23574;BME280;11965;53.640;10.050;2022-10-22T12:08:57;101027.44;;;16.47;100.00
23574;BME280;11965;53.640;10.050;2022-10-22T12:16:58;101023.38;;;16.87;100.00
23574;BME280;11965;53.640;10.050;2022-10-22T12:19:42;101032.97;;;17.16;100.00
23574;BME280;11965;53.640;10.050;2022-10-22T12:22:16;101031.41;;;17.38;100.00
23574;BME280;11965;53.640;10.050;2022-10-22T12:24:47;101040.50;;;17.52;100.00
23574;BME280;11965;53.640;10.050;2022-10-22T12:29:44;101002.09;;;17.53;98.36
23574;BME280;11965;53.640;10.050;2022-10-22T12:32:13;101030.75;;;17.55;97.37
23574;BME280;11965;53.640;10.050;2022-10-22T12:34:47;101031.16;;;17.70;99.90
23574;BME280;11965;53.640;10.050;2022-10-22T12:37:14;101053.34;;;17.90;96.45
23574;BME280;11965;53.640;10.050;2022-10-22T12:39:40;101051.41;;;17.91;99.93
23574;BME280;11965;53.640;10.050;2022-10-22T12:42:12;101033.28;;;17.56;93.93
23574;BME280;11965;53.640;10.050;2022-10-22T12:44:38;101062.63;;;17.72;100.00
23574;BME280;11965;53.640;10.050;2022-10-22T12:47:06;101041.81;;;17.50;100.00
23574;BME280;11965;53.640;10.050;2022-10-22T12:49:38;101062.09;;;17.63;98.71
23574;BME280;11965;53.640;10.050;2022-10-22T12:52:10;101032.59;;;17.61;100.00
23574;BME280;11965;53.640;10.050;2022-10-22T12:54:39;101044.00;;;17.48;100.00
23574;BME280;11965;53.640;10.050;2022-10-22T12:57:12;101054.72;;;17.51;100.00
23574;BME280;11965;53.640;10.050;2022-10-22T12:59:43;101054.41;;;17.59;100.00
23574;BME280;11965;53.640;10.050;2022-10-22T13:02:22;101058.13;;;17.71;100.00
23574;BME280;11965;53.640;10.050;2022-10-22T13:05:12;101063.47;;;17.73;100.00
23574;BME280;11965;53.640;10.050;2022-10-22T13:07:48;101067.22;;;17.66;100.00
23574;BME280;11965;53.640;10.050;2022-10-22T13:10:26;101064.28;;;17.61;100.00
23574;BME280;11965;53.640;10.050;2022-10-22T13:12:57;101063.81;;;17.64;100.00
23574;BME280;11965;53.640;10.050;2022-10-22T13:20:31;101071.59;;;17.81;100.00
23574;BME280;11965;53.640;10.050;2022-10-22T13:22:59;101054.31;;;17.84;100.00
23574;BME280;11965;53.640;10.050;2022-10-22T13:25:32;101071.34;;;18.13;97.29
23574;BME280;11965;53.640;10.050;2022-10-22T13:28:17;101063.91;;;18.18;95.48
23574;BME280;11965;53.640;10.050;2022-10-22T13:30:54;101052.31;;;18.15;97.00
23574;BME280;11965;53.640;10.050;2022-10-22T13:35:48;101053.88;;;18.10;94.80
23574;BME280;11965;53.640;10.050;2022-10-22T13:38:17;101059.88;;;18.14;90.23
23574;BME280;11965;53.640;10.050;2022-10-22T13:40:44;101058.03;;;18.08;92.71
23574;BME280;11965;53.640;10.050;2022-10-22T13:43:09;101068.94;;;18.16;88.64
23574;BME280;11965;53.640;10.050;2022-10-22T13:45:35;101064.72;;;17.95;91.65
23574;BME280;11965;53.640;10.050;2022-10-22T13:48:01;101061.78;;;18.02;95.21
23574;BME280;11965;53.640;10.050;2022-10-22T13:50:27;101056.66;;;17.99;93.95
23574;BME280;11965;53.640;10.050;2022-10-22T13:52:54;101051.28;;;17.97;94.68
23574;BME280;11965;53.640;10.050;2022-10-22T13:55:25;101070.41;;;17.70;95.20
23574;BME280;11965;53.640;10.050;2022-10-22T13:57:59;101062.94;;;17.64;96.12
23574;BME280;11965;53.640;10.050;2022-10-22T14:00:27;101051.25;;;17.37;97.96
23574;BME280;11965;53.640;10.050;2022-10-22T14:02:56;101057.16;;;17.47;96.01
23574;BME280;11965;53.640;10.050;2022-10-22T14:05:24;101062.34;;;17.43;97.53
23574;BME280;11965;53.640;10.050;2022-10-22T14:07:50;101061.50;;;17.25;97.99
23574;BME280;11965;53.640;10.050;2022-10-22T14:10:19;101044.56;;;17.01;100.00